createdAt,value
2022-10-19T00:08:35.281Z,85.0
2022-10-19T00:18:59.948Z,85.0
2022-10-19T00:28:59.970Z,85.0
2022-10-19T00:38:35.284Z,85.0
2022-10-19T00:48:10.663Z,85.5
2022-10-19T00:58:10.615Z,85.5
2022-10-19T01:08:10.628Z,85.5
2022-10-19T01:18:10.622Z,86.0
2022-10-19T01:28:35.333Z,86.0
2022-10-19T01:38:10.625Z,86.0
2022-10-19T01:48:10.626Z,86.0
2022-10-19T01:58:10.626Z,86.0
2022-10-19T02:08:35.302Z,86.5
2022-10-19T02:18:10.632Z,86.5
2022-10-19T02:28:10.635Z,86.5
2022-10-19T02:58:10.643Z,86.5
2022-10-19T03:08:10.648Z,86.5
2022-10-19T04:08:10.671Z,87.5
2022-10-19T04:18:10.679Z,87.5
2022-10-19T04:28:10.665Z,87.5
2022-10-19T04:58:10.674Z,87.5
2022-10-19T05:08:10.684Z,87.5
2022-10-19T05:28:10.677Z,87.5
2022-10-19T05:38:35.351Z,88.0
2022-10-19T05:48:10.696Z,88.0
2022-10-19T05:58:10.691Z,88.0
2022-10-19T06:08:35.356Z,88.0
2022-10-19T06:18:10.688Z,88.5
2022-10-19T06:28:10.701Z,88.5
2022-10-19T06:38:35.361Z,88.5
2022-10-19T06:48:10.700Z,89.0
2022-10-19T06:58:10.716Z,89.0
2022-10-19T07:08:10.762Z,90.0
2022-10-19T07:18:10.725Z,90.0
2022-10-19T07:28:10.716Z,90.5
2022-10-19T07:38:10.727Z,91.0
2022-10-19T07:48:10.734Z,91.5
2022-10-19T08:08:10.637Z,92.5
2022-10-19T08:28:10.660Z,92.5
2022-10-19T08:38:10.655Z,92.5
2022-10-19T08:48:35.322Z,92.0
2022-10-19T08:58:10.664Z,91.5
2022-10-19T09:08:14.175Z,90.5
2022-10-19T09:18:10.673Z,89.0
2022-10-19T09:28:10.674Z,87.5
2022-10-19T09:38:10.677Z,86.5
2022-10-19T09:48:12.967Z,83.0
2022-10-19T09:58:10.686Z,82.5
2022-10-19T10:08:10.691Z,80.5
2022-10-19T10:18:10.700Z,79.5
2022-10-19T10:28:10.694Z,78.5
2022-10-19T10:38:10.704Z,79.5
2022-10-19T10:48:10.705Z,77.5
2022-10-19T10:58:10.705Z,77.0
2022-10-19T11:08:10.714Z,74.0
2022-10-19T11:18:10.721Z,74.5
2022-10-19T11:28:10.780Z,74.0
2022-10-19T11:38:20.861Z,74.5
2022-10-19T11:48:10.739Z,73.0
2022-10-19T11:58:10.738Z,73.5
2022-10-19T12:08:10.812Z,71.5
2022-10-19T12:18:10.755Z,71.5
2022-10-19T12:28:10.755Z,70.0
2022-10-19T12:38:10.767Z,70.0
2022-10-19T12:48:10.760Z,69.0
2022-10-19T12:58:10.762Z,68.5
2022-10-19T13:08:13.777Z,67.5
2022-10-19T13:18:10.774Z,67.5
2022-10-19T13:28:10.778Z,66.0
2022-10-19T13:38:10.787Z,67.0
2022-10-19T13:48:10.791Z,67.5
2022-10-19T13:58:10.796Z,68.0
2022-10-19T14:08:10.790Z,68.5
2022-10-19T14:18:15.232Z,69.0
2022-10-19T14:28:10.796Z,70.0
2022-10-19T14:38:10.791Z,70.5
2022-10-19T14:58:10.803Z,71.0
2022-10-19T15:08:10.810Z,71.0
2022-10-19T15:18:25.184Z,71.0
2022-10-19T15:38:10.829Z,71.5
2022-10-19T15:48:10.825Z,71.5
2022-10-19T15:58:10.827Z,71.5
2022-10-19T16:08:12.486Z,72.5
2022-10-19T16:18:10.827Z,73.0
2022-10-19T16:28:10.843Z,74.0
2022-10-19T16:38:10.836Z,74.5
2022-10-19T16:48:10.836Z,75.0
2022-10-19T16:58:10.849Z,75.5
2022-10-19T17:08:10.840Z,76.0
2022-10-19T17:18:10.881Z,76.5
2022-10-19T17:28:10.845Z,76.5
2022-10-19T17:38:10.847Z,77.0
2022-10-19T17:48:10.851Z,77.5
2022-10-19T17:58:10.867Z,77.5
2022-10-19T18:08:10.872Z,78.0
2022-10-19T18:18:10.858Z,78.0
2022-10-19T18:28:10.871Z,78.5
2022-10-19T18:38:10.865Z,78.5
2022-10-19T18:48:10.868Z,79.0
2022-10-19T18:58:10.888Z,79.0
2022-10-19T19:08:10.869Z,79.5
2022-10-19T19:28:10.899Z,80.0
2022-10-19T19:48:10.879Z,80.5
2022-10-19T19:58:10.892Z,80.5
2022-10-19T20:08:10.889Z,81.0
2022-10-19T20:48:10.905Z,82.5
2022-10-19T20:58:10.901Z,83.0
2022-10-19T21:08:10.916Z,83.5
2022-10-19T21:18:10.934Z,83.5
2022-10-19T21:28:10.906Z,83.5
2022-10-19T21:38:10.911Z,83.5
2022-10-19T21:48:35.582Z,83.5
2022-10-19T21:58:10.919Z,84.0
2022-10-19T22:08:10.916Z,84.5
2022-10-19T22:28:10.928Z,84.5
2022-10-19T22:38:10.928Z,84.5
2022-10-19T22:48:11.032Z,85.5
2022-10-19T23:08:11.037Z,86.0
2022-10-19T23:28:10.934Z,86.0
2022-10-19T23:38:11.049Z,86.0
2022-10-19T23:48:10.950Z,86.0
2022-10-19T23:58:10.953Z,86.5
